createdAt,value
2018-12-14T00:02:26.857Z,92148.50
2018-12-14T00:05:04.478Z,92149.56
2018-12-14T00:07:42.632Z,92144.75
2018-12-14T00:10:20.531Z,92139.77
2018-12-14T00:12:57.298Z,92148.38
2018-12-14T00:15:34.598Z,92149.48
2018-12-14T00:18:11.609Z,92146.23
2018-12-14T00:20:50.121Z,92152.09
2018-12-14T00:23:26.802Z,92149.57
2018-12-14T00:26:03.708Z,92147.55
2018-12-14T00:28:41.341Z,92150.05
2018-12-14T00:31:19.561Z,92144.20
2018-12-14T00:34:03.186Z,92146.11
2018-12-14T00:36:43.454Z,92145.61
2018-12-14T00:39:24.016Z,92140.22
2018-12-14T00:42:01.636Z,92138.38
2018-12-14T00:44:39.137Z,92132.89
2018-12-14T00:47:16.557Z,92130.72
2018-12-14T00:49:53.879Z,92130.13
2018-12-14T00:52:30.637Z,92126.41
2018-12-14T00:55:08.716Z,92132.80
2018-12-14T00:57:46.461Z,92125.36
2018-12-14T01:00:24.009Z,92116.97
2018-12-14T01:03:03.949Z,92119.37
2018-12-14T01:05:40.628Z,92119.75
2018-12-14T01:08:21.077Z,92126.09
2018-12-14T01:11:01.182Z,92119.38
2018-12-14T01:13:38.347Z,92122.78
2018-12-14T01:16:17.302Z,92111.84
2018-12-14T01:18:54.402Z,92119.77
2018-12-14T01:21:33.487Z,92109.92
2018-12-14T01:24:10.633Z,92111.20
2018-12-14T01:26:48.865Z,92111.86
2018-12-14T01:29:26.353Z,92109.43
2018-12-14T01:32:03.424Z,92118.23
2018-12-14T01:34:45.493Z,92114.40
2018-12-14T01:37:23.044Z,92112.13
2018-12-14T01:40:00.007Z,92112.84
2018-12-14T01:42:37.956Z,92113.44
2018-12-14T01:45:16.237Z,92104.83
2018-12-14T01:47:53.268Z,92097.64
2018-12-14T01:50:29.966Z,92107.34
2018-12-14T01:53:08.060Z,92102.43
2018-12-14T01:55:44.895Z,92103.62
2018-12-14T01:58:21.701Z,92111.52
2018-12-14T02:00:58.863Z,92109.59
2018-12-14T02:03:36.005Z,92111.64
2018-12-14T02:06:13.976Z,92111.29
2018-12-14T02:08:51.572Z,92119.55
2018-12-14T02:11:29.044Z,92106.98
2018-12-14T02:14:07.661Z,92112.97
2018-12-14T02:16:45.997Z,92111.05
2018-12-14T02:19:23.884Z,92106.98
2018-12-14T02:22:00.447Z,92111.25
2018-12-14T02:24:39.061Z,92109.73
2018-12-14T02:27:17.402Z,92112.61
2018-12-14T02:29:55.107Z,92108.48
2018-12-14T02:32:32.652Z,92105.83
2018-12-14T02:35:11.103Z,92100.18
2018-12-14T02:37:51.825Z,92096.55
2018-12-14T02:40:28.885Z,92102.07
2018-12-14T02:43:07.785Z,92093.89
2018-12-14T02:45:45.637Z,92098.16
2018-12-14T02:48:23.221Z,92098.03
2018-12-14T02:51:01.594Z,92095.00
2018-12-14T02:53:38.592Z,92099.01
2018-12-14T02:56:18.307Z,92098.73
2018-12-14T02:58:55.150Z,92091.29
2018-12-14T03:01:32.789Z,92091.54
2018-12-14T03:04:13.329Z,92092.47
2018-12-14T03:06:56.247Z,92092.53
2018-12-14T03:09:34.199Z,92088.52
2018-12-14T03:12:11.977Z,92097.20
2018-12-14T03:14:54.753Z,92098.27
2018-12-14T03:17:35.305Z,92103.52
2018-12-14T03:20:15.907Z,92107.40
2018-12-14T03:22:52.450Z,92102.98
2018-12-14T03:25:30.222Z,92101.78
2018-12-14T03:28:07.044Z,92104.58
2018-12-14T03:30:44.028Z,92103.70
2018-12-14T03:33:21.552Z,92101.89
2018-12-14T03:35:59.220Z,92104.06
2018-12-14T03:38:36.199Z,92099.02
2018-12-14T03:41:17.157Z,92103.91
2018-12-14T03:43:55.015Z,92104.78
2018-12-14T03:46:32.433Z,92099.63
2018-12-14T03:49:09.117Z,92095.64
2018-12-14T03:51:46.488Z,92090.03
2018-12-14T03:54:24.169Z,92095.47
2018-12-14T03:57:04.960Z,92087.56
2018-12-14T03:59:42.157Z,92086.85
2018-12-14T04:02:20.856Z,92083.09
2018-12-14T04:04:57.556Z,92087.58
2018-12-14T04:07:34.681Z,92090.09
2018-12-14T04:10:14.759Z,92094.77
2018-12-14T04:13:03.374Z,92093.69
2018-12-14T04:15:41.060Z,92100.52
2018-12-14T04:18:23.075Z,92095.24
2018-12-14T04:21:05.672Z,92098.05
2018-12-14T04:23:43.423Z,92090.20
2018-12-14T04:26:21.390Z,92095.34
2018-12-14T04:29:01.685Z,92096.09
2018-12-14T04:31:38.793Z,92096.06
2018-12-14T04:34:15.585Z,92104.11
2018-12-14T04:36:53.488Z,92102.50
2018-12-14T04:39:31.307Z,92099.13
2018-12-14T04:42:08.868Z,92103.33
2018-12-14T04:44:45.957Z,92094.90
2018-12-14T04:47:24.232Z,92100.64
2018-12-14T04:50:02.557Z,92091.89
2018-12-14T04:52:39.396Z,92095.41
2018-12-14T04:55:16.546Z,92097.52
2018-12-14T04:57:53.567Z,92101.89
2018-12-14T05:00:32.038Z,92100.23
2018-12-14T05:03:10.280Z,92094.59
2018-12-14T05:05:46.432Z,92101.45
2018-12-14T05:08:22.465Z,92098.91
2018-12-14T05:11:00.854Z,92100.04
2018-12-14T05:13:41.776Z,92103.38
2018-12-14T05:16:22.269Z,92098.85
2018-12-14T05:19:00.975Z,92107.47
2018-12-14T05:21:43.420Z,92107.71
2018-12-14T05:24:23.330Z,92108.11
2018-12-14T05:27:00.511Z,92118.98
2018-12-14T05:29:39.163Z,92124.23
2018-12-14T05:32:16.011Z,92123.94
2018-12-14T05:34:54.248Z,92126.80
2018-12-14T05:37:32.215Z,92116.94
2018-12-14T05:40:11.058Z,92123.89
2018-12-14T05:42:48.793Z,92122.91
2018-12-14T05:45:27.096Z,92124.83
2018-12-14T05:48:04.059Z,92128.25
2018-12-14T05:50:41.784Z,92121.38
2018-12-14T05:53:20.646Z,92129.68
2018-12-14T05:56:03.009Z,92143.71
2018-12-14T05:58:40.089Z,92151.25
2018-12-14T06:01:19.735Z,92149.83
2018-12-14T06:03:56.203Z,92144.20
2018-12-14T06:06:33.223Z,92141.63
2018-12-14T06:09:10.524Z,92153.17
2018-12-14T06:11:48.027Z,92153.44
2018-12-14T06:14:25.425Z,92155.67
2018-12-14T06:17:01.785Z,92151.84
2018-12-14T06:19:37.950Z,92152.41
2018-12-14T06:22:13.888Z,92161.88
2018-12-14T06:24:50.029Z,92161.60
2018-12-14T06:27:26.008Z,92163.02
2018-12-14T06:30:01.871Z,92163.84
2018-12-14T06:32:37.830Z,92164.27
2018-12-14T06:35:14.017Z,92166.36
2018-12-14T06:37:50.259Z,92171.65
2018-12-14T06:40:26.831Z,92174.31
2018-12-14T06:43:02.986Z,92165.43
2018-12-14T06:45:38.793Z,92179.88
2018-12-14T06:48:14.690Z,92178.38
2018-12-14T06:50:51.772Z,92185.14
2018-12-14T06:53:27.655Z,92186.08
2018-12-14T06:56:03.685Z,92188.76
2018-12-14T06:58:39.659Z,92186.74
2018-12-14T07:01:15.440Z,92191.70
2018-12-14T07:03:51.485Z,92191.16
2018-12-14T07:06:27.582Z,92188.13
2018-12-14T07:09:05.301Z,92200.83
2018-12-14T07:11:41.247Z,92202.91
2018-12-14T07:14:17.585Z,92199.72
2018-12-14T07:16:54.878Z,92200.20
2018-12-14T07:19:30.894Z,92200.59
2018-12-14T07:22:07.095Z,92199.50
2018-12-14T07:24:43.348Z,92205.16
2018-12-14T07:27:19.411Z,92195.28
2018-12-14T07:29:56.095Z,92199.09
2018-12-14T07:32:32.170Z,92198.25
2018-12-14T07:35:08.518Z,92199.96
2018-12-14T07:37:44.308Z,92199.20
2018-12-14T07:40:20.355Z,92205.28
2018-12-14T07:42:56.442Z,92203.73
2018-12-14T07:45:32.416Z,92201.80
2018-12-14T07:48:08.210Z,92208.20
2018-12-14T07:50:44.262Z,92207.22
2018-12-14T07:53:20.394Z,92206.98
2018-12-14T07:55:56.362Z,92205.21
2018-12-14T07:58:32.490Z,92211.89
2018-12-14T08:01:09.347Z,92210.45
2018-12-14T08:03:45.300Z,92206.19
2018-12-14T08:06:21.537Z,92217.20
2018-12-14T08:08:57.708Z,92219.74
2018-12-14T08:11:33.964Z,92219.60
2018-12-14T08:14:09.918Z,92223.95
2018-12-14T08:16:45.776Z,92220.03
2018-12-14T08:19:21.989Z,92218.28
2018-12-14T08:21:57.897Z,92220.48
2018-12-14T08:24:34.074Z,92218.23
2018-12-14T08:27:09.990Z,92215.02
2018-12-14T08:29:46.121Z,92222.62
2018-12-14T08:32:22.154Z,92230.03
2018-12-14T08:34:58.213Z,92223.69
2018-12-14T08:37:34.269Z,92219.41
2018-12-14T08:40:10.794Z,92217.33
2018-12-14T08:42:47.007Z,92217.83
2018-12-14T08:45:23.101Z,92207.17
2018-12-14T08:47:59.570Z,92220.58
2018-12-14T08:50:35.890Z,92225.16
2018-12-14T08:53:12.952Z,92212.00
2018-12-14T08:55:49.251Z,92216.44
2018-12-14T08:58:25.534Z,92212.75
2018-12-14T09:01:01.938Z,92212.77
2018-12-14T09:03:37.934Z,92213.38
2018-12-14T09:06:14.102Z,92206.12
2018-12-14T09:08:50.356Z,92209.33
2018-12-14T09:11:26.591Z,92213.33
2018-12-14T09:14:02.784Z,92213.91
2018-12-14T09:16:38.907Z,92213.14
2018-12-14T09:19:14.929Z,92220.89
2018-12-14T09:21:54.958Z,92211.69
2018-12-14T09:24:31.085Z,92213.53
2018-12-14T09:27:07.871Z,92209.05
2018-12-14T09:29:44.079Z,92197.81
2018-12-14T09:32:20.167Z,92200.91
2018-12-14T09:34:56.386Z,92187.20
2018-12-14T09:37:32.598Z,92183.58
2018-12-14T09:40:08.678Z,92185.06
2018-12-14T09:42:44.789Z,92190.30
2018-12-14T09:45:20.732Z,92182.54
2018-12-14T09:47:56.839Z,92186.95
2018-12-14T09:50:32.846Z,92186.66
2018-12-14T09:53:08.641Z,92182.59
2018-12-14T09:55:44.657Z,92184.77
2018-12-14T09:58:20.845Z,92181.37
2018-12-14T10:00:56.805Z,92182.57
2018-12-14T10:03:33.686Z,92185.41
2018-12-14T10:06:15.547Z,92191.27
2018-12-14T10:08:48.409Z,92197.72
2018-12-14T10:11:25.443Z,92181.86
2018-12-14T10:14:01.477Z,92194.39
2018-12-14T10:16:37.430Z,92189.53
2018-12-14T10:19:13.605Z,92177.48
2018-12-14T10:21:49.583Z,92184.80
2018-12-14T10:24:25.713Z,92191.95
2018-12-14T10:27:01.709Z,92189.42
2018-12-14T10:29:37.954Z,92187.25
2018-12-14T10:32:14.329Z,92192.44
2018-12-14T10:34:50.534Z,92192.11
2018-12-14T10:37:26.867Z,92191.91
2018-12-14T10:40:02.983Z,92186.22
2018-12-14T10:42:53.254Z,92181.20
2018-12-14T10:45:45.796Z,92180.07
2018-12-14T10:48:22.534Z,92175.84
2018-12-14T10:50:58.890Z,92164.61
2018-12-14T10:53:35.188Z,92166.00
2018-12-14T10:56:11.307Z,92173.91
2018-12-14T10:58:47.290Z,92169.72
2018-12-14T11:01:28.729Z,92171.31
2018-12-14T11:04:04.646Z,92171.14
2018-12-14T11:06:40.488Z,92164.00
2018-12-14T11:09:16.757Z,92163.44
2018-12-14T11:11:52.873Z,92158.17
2018-12-14T11:14:28.864Z,92164.70
2018-12-14T11:17:05.083Z,92160.93
2018-12-14T11:19:41.306Z,92151.34
2018-12-14T11:22:17.442Z,92155.66
2018-12-14T11:24:53.610Z,92158.92
2018-12-14T11:27:29.953Z,92154.05
2018-12-14T11:30:07.431Z,92156.94
2018-12-14T11:32:43.567Z,92161.69
2018-12-14T11:35:19.582Z,92155.50
2018-12-14T11:37:55.617Z,92151.56
2018-12-14T11:40:31.950Z,92149.62
2018-12-14T11:43:08.042Z,92147.88
2018-12-14T11:45:44.078Z,92152.37
2018-12-14T11:48:20.181Z,92159.73
2018-12-14T11:50:56.193Z,92154.09
2018-12-14T11:53:32.266Z,92153.28
2018-12-14T11:56:08.324Z,92147.18
2018-12-14T11:58:44.433Z,92142.23
2018-12-14T12:01:20.399Z,92133.66
2018-12-14T12:03:56.600Z,92142.36
2018-12-14T12:06:32.523Z,92142.62
2018-12-14T12:09:11.252Z,92151.80
2018-12-14T12:11:47.423Z,92143.05
2018-12-14T12:14:26.940Z,92139.09
2018-12-14T12:17:01.707Z,92144.25
2018-12-14T12:19:37.863Z,92149.83
2018-12-14T12:22:14.150Z,92146.20
2018-12-14T12:24:50.245Z,92149.39
2018-12-14T12:27:26.381Z,92146.97
2018-12-14T12:30:09.945Z,92148.24
2018-12-14T12:32:48.191Z,92145.85
2018-12-14T12:35:24.371Z,92151.08
2018-12-14T12:38:00.623Z,92156.63
2018-12-14T12:40:39.326Z,92145.41
2018-12-14T12:43:17.144Z,92152.56
2018-12-14T12:45:53.595Z,92134.73
2018-12-14T12:48:34.528Z,92129.44
2018-12-14T12:51:21.354Z,92132.83
2018-12-14T12:53:59.459Z,92137.23
2018-12-14T12:56:37.149Z,92137.15
2018-12-14T12:59:14.393Z,92144.10
2018-12-14T13:01:52.626Z,92139.97
2018-12-14T13:04:31.180Z,92132.95
2018-12-14T13:07:08.855Z,92147.69
2018-12-14T13:09:46.436Z,92143.81
2018-12-14T13:12:23.677Z,92148.72
2018-12-14T13:15:01.181Z,92148.47
2018-12-14T13:17:39.113Z,92149.80
2018-12-14T13:20:16.564Z,92146.09
2018-12-14T13:22:59.507Z,92145.64
2018-12-14T13:25:36.858Z,92148.63
2018-12-14T13:28:22.886Z,92161.36
2018-12-14T13:30:59.510Z,92151.66
2018-12-14T13:33:47.990Z,92139.06
2018-12-14T13:36:24.801Z,92130.44
2018-12-14T13:39:02.464Z,92136.82
2018-12-14T13:41:39.419Z,92134.22
2018-12-14T13:44:19.823Z,92126.39
2018-12-14T13:46:57.102Z,92135.94
2018-12-14T13:49:34.611Z,92140.55
2018-12-14T13:52:11.694Z,92154.52
2018-12-14T13:54:51.655Z,92161.86
2018-12-14T13:57:29.127Z,92148.90
2018-12-14T14:00:07.741Z,92145.53
2018-12-14T14:02:45.425Z,92139.36
2018-12-14T14:05:22.540Z,92138.05
2018-12-14T14:08:05.779Z,92151.88
2018-12-14T14:10:42.859Z,92139.80
2018-12-14T14:13:22.420Z,92139.36
2018-12-14T14:15:59.326Z,92145.38
2018-12-14T14:18:36.656Z,92145.38
2018-12-14T14:21:15.831Z,92148.80
2018-12-14T14:23:59.954Z,92145.47
2018-12-14T14:26:44.348Z,92132.23
2018-12-14T14:29:19.420Z,92138.69
2018-12-14T14:31:57.016Z,92145.53
2018-12-14T14:34:34.260Z,92154.10
2018-12-14T14:37:14.471Z,92154.31
2018-12-14T14:39:51.802Z,92154.36
2018-12-14T14:42:35.648Z,92156.45
2018-12-14T14:45:19.359Z,92160.98
2018-12-14T14:47:56.722Z,92150.16
2018-12-14T14:50:39.167Z,92152.65
2018-12-14T14:53:17.872Z,92149.36
2018-12-14T14:55:55.531Z,92157.12
2018-12-14T14:58:34.367Z,92169.74
2018-12-14T15:01:12.193Z,92162.08
2018-12-14T15:03:48.831Z,92162.69
2018-12-14T15:06:27.314Z,92167.67
2018-12-14T15:09:04.649Z,92148.20
2018-12-14T15:11:40.844Z,92148.62
2018-12-14T15:14:16.990Z,92158.44
2018-12-14T15:17:01.356Z,92158.06
2018-12-14T15:19:38.312Z,92144.00
2018-12-14T15:22:14.244Z,92164.20
2018-12-14T15:24:50.289Z,92158.30
2018-12-14T15:27:26.389Z,92151.89
2018-12-14T15:30:02.622Z,92161.33
2018-12-14T15:32:38.610Z,92162.59
2018-12-14T15:35:15.846Z,92178.21
2018-12-14T15:37:51.904Z,92170.73
2018-12-14T15:40:27.965Z,92168.80
2018-12-14T15:43:04.335Z,92179.84
2018-12-14T15:45:40.486Z,92177.72
2018-12-14T15:48:16.364Z,92174.88
2018-12-14T15:50:52.178Z,92180.77
2018-12-14T15:59:42.207Z,92183.37
2018-12-14T16:05:25.274Z,92183.09
2018-12-14T16:08:02.233Z,92185.57
2018-12-14T16:10:38.326Z,92192.59
2018-12-14T16:13:14.334Z,92198.55
2018-12-14T16:16:06.669Z,92183.44
2018-12-14T16:18:45.360Z,92182.12
2018-12-14T16:21:25.354Z,92182.31
2018-12-14T16:24:13.277Z,92194.55
2018-12-14T16:26:50.047Z,92187.85
2018-12-14T16:29:34.320Z,92191.28
2018-12-14T16:35:05.780Z,92191.25
2018-12-14T16:37:41.851Z,92185.68
2018-12-14T16:40:18.000Z,92185.02
2018-12-14T16:42:53.968Z,92184.23
2018-12-14T16:45:30.166Z,92183.10
2018-12-14T16:48:07.402Z,92189.58
2018-12-14T16:50:43.823Z,92203.00
2018-12-14T16:53:19.750Z,92186.77
2018-12-14T16:55:56.413Z,92198.34
2018-12-14T16:58:32.493Z,92184.39
2018-12-14T17:01:08.660Z,92190.20
2018-12-14T17:03:44.622Z,92183.80
2018-12-14T17:06:21.545Z,92181.05
2018-12-14T17:08:57.641Z,92190.50
2018-12-14T17:11:34.212Z,92186.42
2018-12-14T17:14:10.113Z,92195.27
2018-12-14T17:16:46.195Z,92184.30
2018-12-14T17:19:22.205Z,92180.16
2018-12-14T17:24:53.801Z,92187.39
2018-12-14T17:27:30.131Z,92180.39
2018-12-14T17:30:09.590Z,92188.53
2018-12-14T17:32:45.752Z,92180.58
2018-12-14T17:35:21.623Z,92184.50
2018-12-14T17:37:57.454Z,92186.65
2018-12-14T17:40:33.435Z,92191.72
2018-12-14T17:43:09.586Z,92187.14
2018-12-14T17:45:45.545Z,92187.03
2018-12-14T17:48:21.708Z,92193.27
2018-12-14T17:50:58.150Z,92187.86
2018-12-14T17:53:34.059Z,92186.38
2018-12-14T17:56:10.214Z,92186.97
2018-12-14T17:58:46.214Z,92187.52
2018-12-14T18:01:22.623Z,92186.09
2018-12-14T18:03:58.979Z,92182.56
2018-12-14T18:06:34.962Z,92197.46
2018-12-14T18:09:11.376Z,92197.22
2018-12-14T18:11:47.660Z,92184.72
2018-12-14T18:14:24.003Z,92186.81
2018-12-14T18:17:00.131Z,92192.60
2018-12-14T18:19:37.571Z,92196.36
2018-12-14T18:22:14.875Z,92205.13
2018-12-14T18:24:51.174Z,92200.16
2018-12-14T18:27:27.602Z,92200.72
2018-12-14T18:30:04.924Z,92199.78
2018-12-14T18:32:41.100Z,92195.25
2018-12-14T18:35:17.927Z,92197.91
2018-12-14T18:37:54.146Z,92203.41
2018-12-14T18:40:30.542Z,92202.97
2018-12-14T18:43:06.587Z,92206.52
2018-12-14T18:52:00.366Z,92198.58
2018-12-14T18:54:37.162Z,92198.90
2018-12-14T18:57:13.646Z,92195.09
2018-12-14T18:59:50.019Z,92194.07
2018-12-14T19:02:26.279Z,92198.92
2018-12-14T19:05:02.337Z,92202.55
2018-12-14T19:07:38.632Z,92190.09
2018-12-14T19:10:14.802Z,92188.91
2018-12-14T19:12:54.365Z,92188.58
2018-12-14T19:15:30.572Z,92192.69
2018-12-14T19:18:07.072Z,92196.72
2018-12-14T19:20:43.116Z,92191.02
2018-12-14T19:23:19.987Z,92200.38
2018-12-14T19:25:57.266Z,92196.73
2018-12-14T19:28:33.906Z,92186.91
2018-12-14T19:31:10.002Z,92187.92
2018-12-14T19:33:46.453Z,92196.36
2018-12-14T19:36:22.994Z,92185.27
2018-12-14T19:38:59.866Z,92181.45
2018-12-14T19:41:36.063Z,92186.14
2018-12-14T19:44:12.150Z,92182.12
2018-12-14T19:46:48.190Z,92179.08
2018-12-14T19:49:24.444Z,92176.41
2018-12-14T19:52:01.111Z,92184.87
2018-12-14T19:54:37.396Z,92188.37
2018-12-14T19:57:13.814Z,92168.98
2018-12-14T19:59:50.366Z,92178.45
2018-12-14T20:02:26.324Z,92177.62
2018-12-14T20:05:02.212Z,92169.31
2018-12-14T20:07:38.225Z,92171.39
2018-12-14T20:10:14.370Z,92171.07
2018-12-14T20:12:50.337Z,92174.98
2018-12-14T20:15:26.891Z,92171.72
2018-12-14T20:18:03.141Z,92176.80
2018-12-14T20:20:39.281Z,92168.42
2018-12-14T20:23:15.243Z,92173.61
2018-12-14T20:25:51.315Z,92161.47
2018-12-14T20:28:28.575Z,92160.30
2018-12-14T20:31:05.004Z,92158.58
2018-12-14T20:33:41.347Z,92162.02
2018-12-14T20:36:17.911Z,92172.63
2018-12-14T20:38:54.154Z,92159.69
2018-12-14T20:41:30.473Z,92157.17
2018-12-14T20:44:06.792Z,92168.42
2018-12-14T20:46:43.486Z,92161.14
2018-12-14T20:49:19.613Z,92156.31
2018-12-14T20:51:55.580Z,92156.56
2018-12-14T20:54:31.591Z,92162.95
2018-12-14T20:57:07.761Z,92169.86
2018-12-14T20:59:44.186Z,92164.57
2018-12-14T21:02:20.783Z,92166.88
2018-12-14T21:04:57.166Z,92172.28
2018-12-14T21:07:33.466Z,92165.08
2018-12-14T21:17:17.213Z,92161.39
2018-12-14T21:19:53.372Z,92161.70
2018-12-14T21:22:30.080Z,92163.73
2018-12-14T21:25:06.786Z,92155.86
2018-12-14T21:27:43.151Z,92153.41
2018-12-14T21:30:19.260Z,92166.48
2018-12-14T21:32:55.082Z,92166.37
2018-12-14T21:35:31.117Z,92161.42
2018-12-14T21:38:07.205Z,92156.34
2018-12-14T21:40:43.242Z,92156.95
2018-12-14T21:43:19.677Z,92165.61
2018-12-14T21:45:56.490Z,92169.52
2018-12-14T21:48:32.982Z,92164.61
2018-12-14T21:51:08.974Z,92160.59
2018-12-14T21:53:44.867Z,92162.70
2018-12-14T21:56:21.097Z,92168.45
2018-12-14T21:58:57.279Z,92166.45
2018-12-14T22:01:33.215Z,92151.27
2018-12-14T22:04:09.306Z,92161.86
2018-12-14T22:06:45.380Z,92164.46
2018-12-14T22:09:21.771Z,92160.41
2018-12-14T22:11:57.769Z,92160.92
2018-12-14T22:14:34.233Z,92167.86
2018-12-14T22:17:10.490Z,92160.26
2018-12-14T22:19:46.593Z,92170.98
2018-12-14T22:22:22.630Z,92170.20
2018-12-14T22:24:58.701Z,92163.70
2018-12-14T22:27:34.778Z,92169.47
2018-12-14T22:30:11.415Z,92169.97
2018-12-14T22:32:48.535Z,92162.42
2018-12-14T22:35:25.118Z,92164.23
2018-12-14T22:38:01.486Z,92152.09
2018-12-14T22:40:37.857Z,92146.05
2018-12-14T22:43:13.960Z,92152.70
2018-12-14T22:45:50.025Z,92145.05
2018-12-14T22:48:26.319Z,92148.53
2018-12-14T22:51:02.435Z,92138.04
2018-12-14T22:53:38.396Z,92138.11
2018-12-14T22:56:14.520Z,92134.31
2018-12-14T23:01:50.926Z,92129.44
2018-12-14T23:04:26.937Z,92144.63
2018-12-14T23:07:03.095Z,92141.62
2018-12-14T23:09:39.062Z,92137.69
2018-12-14T23:12:15.323Z,92140.12
2018-12-14T23:14:51.305Z,92140.58
2018-12-14T23:17:27.957Z,92140.66
2018-12-14T23:20:03.955Z,92140.30
2018-12-14T23:22:40.056Z,92132.63
2018-12-14T23:25:16.341Z,92138.86
2018-12-14T23:27:52.458Z,92154.44
2018-12-14T23:30:28.754Z,92146.45
2018-12-14T23:33:05.408Z,92147.85
2018-12-14T23:35:46.174Z,92137.54
2018-12-14T23:38:22.843Z,92139.22
2018-12-14T23:40:59.533Z,92131.38
2018-12-14T23:43:38.375Z,92133.57
2018-12-14T23:46:15.918Z,92130.51
2018-12-14T23:48:52.922Z,92127.55
2018-12-14T23:51:30.162Z,92126.36
2018-12-14T23:54:08.039Z,92136.63
2018-12-14T23:56:46.197Z,92138.32
2018-12-14T23:59:23.732Z,92135.34
